sensor_id;sensor_type;location;lat;lon;timestamp;P1;durP1;ratioP1;P2;durP2;ratioP2
25111;SDS011;13092;51.996;4.458;2023-12-04T00:01:19;32.00;;;29.10;;
25111;SDS011;13092;51.996;4.458;2023-12-04T00:03:47;30.93;;;28.20;;
25111;SDS011;13092;51.996;4.458;2023-12-04T00:06:15;32.63;;;29.63;;
25111;SDS011;13092;51.996;4.458;2023-12-04T00:08:43;33.63;;;30.63;;
25111;SDS011;13092;51.996;4.458;2023-12-04T00:11:11;32.70;;;29.67;;
25111;SDS011;13092;51.996;4.458;2023-12-04T00:13:40;32.50;;;29.60;;
25111;SDS011;13092;51.996;4.458;2023-12-04T00:16:09;33.30;;;29.90;;
25111;SDS011;13092;51.996;4.458;2023-12-04T00:18:37;33.60;;;30.70;;
25111;SDS011;13092;51.996;4.458;2023-12-04T00:21:06;33.33;;;30.43;;
25111;SDS011;13092;51.996;4.458;2023-12-04T00:23:34;34.00;;;30.93;;
25111;SDS011;13092;51.996;4.458;2023-12-04T00:26:02;33.43;;;30.43;;
25111;SDS011;13092;51.996;4.458;2023-12-04T00:28:31;34.50;;;31.27;;
25111;SDS011;13092;51.996;4.458;2023-12-04T00:31:01;32.30;;;29.43;;
25111;SDS011;13092;51.996;4.458;2023-12-04T00:33:30;32.23;;;29.37;;
25111;SDS011;13092;51.996;4.458;2023-12-04T00:35:59;31.57;;;28.73;;
25111;SDS011;13092;51.996;4.458;2023-12-04T00:38:27;31.43;;;28.60;;
25111;SDS011;13092;51.996;4.458;2023-12-04T00:40:55;31.40;;;28.60;;
25111;SDS011;13092;51.996;4.458;2023-12-04T00:43:24;31.43;;;28.53;;
25111;SDS011;13092;51.996;4.458;2023-12-04T00:45:52;29.57;;;26.90;;
25111;SDS011;13092;51.996;4.458;2023-12-04T00:48:20;30.87;;;28.10;;
25111;SDS011;13092;51.996;4.458;2023-12-04T00:50:51;30.50;;;27.80;;
25111;SDS011;13092;51.996;4.458;2023-12-04T00:53:19;31.87;;;28.83;;
25111;SDS011;13092;51.996;4.458;2023-12-04T00:55:47;30.37;;;27.30;;
25111;SDS011;13092;51.996;4.458;2023-12-04T00:58:15;32.17;;;29.23;;
25111;SDS011;13092;51.996;4.458;2023-12-04T01:00:43;31.90;;;28.90;;
25111;SDS011;13092;51.996;4.458;2023-12-04T01:03:11;31.40;;;28.63;;
25111;SDS011;13092;51.996;4.458;2023-12-04T01:05:39;31.40;;;28.63;;
25111;SDS011;13092;51.996;4.458;2023-12-04T01:08:08;29.90;;;27.27;;
25111;SDS011;13092;51.996;4.458;2023-12-04T01:10:36;29.83;;;27.23;;
25111;SDS011;13092;51.996;4.458;2023-12-04T01:13:06;29.33;;;26.87;;
25111;SDS011;13092;51.996;4.458;2023-12-04T01:15:34;29.37;;;26.80;;
25111;SDS011;13092;51.996;4.458;2023-12-04T01:18:02;31.70;;;28.70;;
25111;SDS011;13092;51.996;4.458;2023-12-04T01:20:31;28.97;;;26.47;;
25111;SDS011;13092;51.996;4.458;2023-12-04T01:22:59;29.60;;;27.10;;
25111;SDS011;13092;51.996;4.458;2023-12-04T01:25:29;31.30;;;28.27;;
25111;SDS011;13092;51.996;4.458;2023-12-04T01:27:57;30.17;;;27.33;;
25111;SDS011;13092;51.996;4.458;2023-12-04T01:30:25;29.33;;;26.63;;
25111;SDS011;13092;51.996;4.458;2023-12-04T01:32:53;30.70;;;27.90;;
25111;SDS011;13092;51.996;4.458;2023-12-04T01:35:21;30.00;;;27.20;;
25111;SDS011;13092;51.996;4.458;2023-12-04T01:37:50;29.83;;;27.20;;
25111;SDS011;13092;51.996;4.458;2023-12-04T01:40:18;31.30;;;28.40;;
25111;SDS011;13092;51.996;4.458;2023-12-04T01:42:48;30.77;;;28.00;;
25111;SDS011;13092;51.996;4.458;2023-12-04T01:45:16;29.70;;;27.00;;
25111;SDS011;13092;51.996;4.458;2023-12-04T01:47:44;31.00;;;28.20;;
25111;SDS011;13092;51.996;4.458;2023-12-04T01:50:13;30.93;;;28.23;;
25111;SDS011;13092;51.996;4.458;2023-12-04T01:52:43;30.97;;;28.30;;
25111;SDS011;13092;51.996;4.458;2023-12-04T01:55:11;31.23;;;28.33;;
25111;SDS011;13092;51.996;4.458;2023-12-04T01:57:40;31.40;;;28.63;;
25111;SDS011;13092;51.996;4.458;2023-12-04T02:00:11;31.57;;;28.87;;
25111;SDS011;13092;51.996;4.458;2023-12-04T02:02:41;30.60;;;27.97;;
25111;SDS011;13092;51.996;4.458;2023-12-04T02:05:09;30.40;;;27.90;;
25111;SDS011;13092;51.996;4.458;2023-12-04T02:07:40;29.97;;;27.27;;
25111;SDS011;13092;51.996;4.458;2023-12-04T02:10:09;30.57;;;27.87;;
25111;SDS011;13092;51.996;4.458;2023-12-04T02:12:38;31.70;;;28.67;;
25111;SDS011;13092;51.996;4.458;2023-12-04T02:15:06;30.83;;;28.33;;
25111;SDS011;13092;51.996;4.458;2023-12-04T02:17:37;29.70;;;27.10;;
25111;SDS011;13092;51.996;4.458;2023-12-04T02:20:06;31.40;;;28.70;;
25111;SDS011;13092;51.996;4.458;2023-12-04T02:22:35;30.10;;;27.57;;
25111;SDS011;13092;51.996;4.458;2023-12-04T02:25:06;29.27;;;26.77;;
25111;SDS011;13092;51.996;4.458;2023-12-04T02:27:56;28.73;;;26.43;;
25111;SDS011;13092;51.996;4.458;2023-12-04T02:30:28;28.87;;;26.37;;
25111;SDS011;13092;51.996;4.458;2023-12-04T02:32:59;29.23;;;26.63;;
25111;SDS011;13092;51.996;4.458;2023-12-04T02:35:29;28.10;;;25.67;;
25111;SDS011;13092;51.996;4.458;2023-12-04T02:38:00;27.97;;;25.37;;
25111;SDS011;13092;51.996;4.458;2023-12-04T02:40:30;26.27;;;24.03;;
25111;SDS011;13092;51.996;4.458;2023-12-04T02:42:58;26.03;;;23.83;;
25111;SDS011;13092;51.996;4.458;2023-12-04T02:45:27;25.97;;;23.57;;
25111;SDS011;13092;51.996;4.458;2023-12-04T02:47:57;25.43;;;23.23;;
25111;SDS011;13092;51.996;4.458;2023-12-04T02:50:25;25.57;;;23.13;;
25111;SDS011;13092;51.996;4.458;2023-12-04T02:52:53;25.73;;;22.97;;
25111;SDS011;13092;51.996;4.458;2023-12-04T02:55:21;26.43;;;23.90;;
25111;SDS011;13092;51.996;4.458;2023-12-04T02:57:50;25.70;;;23.27;;
25111;SDS011;13092;51.996;4.458;2023-12-04T03:00:18;24.27;;;21.93;;
25111;SDS011;13092;51.996;4.458;2023-12-04T03:02:46;22.70;;;20.77;;
25111;SDS011;13092;51.996;4.458;2023-12-04T03:05:15;23.37;;;21.17;;
25111;SDS011;13092;51.996;4.458;2023-12-04T03:07:43;23.23;;;21.10;;
25111;SDS011;13092;51.996;4.458;2023-12-04T03:10:11;21.53;;;19.53;;
25111;SDS011;13092;51.996;4.458;2023-12-04T03:12:40;23.10;;;21.17;;
25111;SDS011;13092;51.996;4.458;2023-12-04T03:15:09;22.37;;;20.27;;
25111;SDS011;13092;51.996;4.458;2023-12-04T03:17:39;22.60;;;20.50;;
25111;SDS011;13092;51.996;4.458;2023-12-04T03:20:07;22.33;;;20.17;;
25111;SDS011;13092;51.996;4.458;2023-12-04T03:22:37;23.17;;;20.80;;
25111;SDS011;13092;51.996;4.458;2023-12-04T03:25:05;22.27;;;20.27;;
25111;SDS011;13092;51.996;4.458;2023-12-04T03:27:34;22.23;;;20.20;;
25111;SDS011;13092;51.996;4.458;2023-12-04T03:30:03;21.63;;;19.53;;
25111;SDS011;13092;51.996;4.458;2023-12-04T03:32:33;22.03;;;19.90;;
25111;SDS011;13092;51.996;4.458;2023-12-04T03:35:01;20.80;;;18.97;;
25111;SDS011;13092;51.996;4.458;2023-12-04T03:37:29;20.53;;;18.47;;
25111;SDS011;13092;51.996;4.458;2023-12-04T03:39:57;20.63;;;18.77;;
25111;SDS011;13092;51.996;4.458;2023-12-04T03:42:26;21.10;;;19.00;;
25111;SDS011;13092;51.996;4.458;2023-12-04T03:44:54;20.97;;;18.97;;
25111;SDS011;13092;51.996;4.458;2023-12-04T03:47:22;21.80;;;19.53;;
25111;SDS011;13092;51.996;4.458;2023-12-04T03:49:52;21.33;;;19.23;;
25111;SDS011;13092;51.996;4.458;2023-12-04T03:52:21;21.20;;;19.00;;
25111;SDS011;13092;51.996;4.458;2023-12-04T03:54:49;21.53;;;19.33;;
25111;SDS011;13092;51.996;4.458;2023-12-04T03:57:17;18.97;;;17.27;;
25111;SDS011;13092;51.996;4.458;2023-12-04T03:59:45;19.77;;;17.97;;
25111;SDS011;13092;51.996;4.458;2023-12-04T04:02:13;19.00;;;17.20;;
25111;SDS011;13092;51.996;4.458;2023-12-04T04:04:41;18.77;;;16.97;;
25111;SDS011;13092;51.996;4.458;2023-12-04T04:07:10;20.27;;;18.20;;
25111;SDS011;13092;51.996;4.458;2023-12-04T04:09:39;20.03;;;18.03;;
25111;SDS011;13092;51.996;4.458;2023-12-04T04:12:07;17.77;;;16.07;;
25111;SDS011;13092;51.996;4.458;2023-12-04T04:14:35;17.57;;;15.87;;
25111;SDS011;13092;51.996;4.458;2023-12-04T04:17:03;18.60;;;16.90;;
25111;SDS011;13092;51.996;4.458;2023-12-04T04:19:31;18.17;;;16.53;;
25111;SDS011;13092;51.996;4.458;2023-12-04T04:22:00;17.93;;;16.20;;
25111;SDS011;13092;51.996;4.458;2023-12-04T04:24:29;18.70;;;16.93;;
25111;SDS011;13092;51.996;4.458;2023-12-04T04:26:57;19.03;;;17.07;;
25111;SDS011;13092;51.996;4.458;2023-12-04T04:29:27;18.37;;;16.63;;
25111;SDS011;13092;51.996;4.458;2023-12-04T04:31:56;17.53;;;15.83;;
25111;SDS011;13092;51.996;4.458;2023-12-04T04:34:24;17.80;;;16.20;;
25111;SDS011;13092;51.996;4.458;2023-12-04T04:36:52;19.00;;;17.07;;
25111;SDS011;13092;51.996;4.458;2023-12-04T04:39:21;18.87;;;17.10;;
25111;SDS011;13092;51.996;4.458;2023-12-04T04:41:50;17.63;;;15.77;;
25111;SDS011;13092;51.996;4.458;2023-12-04T04:44:18;17.50;;;15.83;;
25111;SDS011;13092;51.996;4.458;2023-12-04T04:46:49;17.80;;;16.10;;
25111;SDS011;13092;51.996;4.458;2023-12-04T04:49:18;18.50;;;16.63;;
25111;SDS011;13092;51.996;4.458;2023-12-04T04:51:46;16.83;;;15.03;;
25111;SDS011;13092;51.996;4.458;2023-12-04T04:54:14;15.70;;;14.23;;
25111;SDS011;13092;51.996;4.458;2023-12-04T04:56:42;16.43;;;14.70;;
25111;SDS011;13092;51.996;4.458;2023-12-04T04:59:12;16.10;;;14.60;;
25111;SDS011;13092;51.996;4.458;2023-12-04T05:01:40;15.70;;;14.10;;
25111;SDS011;13092;51.996;4.458;2023-12-04T05:04:08;15.23;;;13.73;;
25111;SDS011;13092;51.996;4.458;2023-12-04T05:06:36;15.17;;;13.13;;
25111;SDS011;13092;51.996;4.458;2023-12-04T05:09:05;15.57;;;13.47;;
25111;SDS011;13092;51.996;4.458;2023-12-04T05:11:33;16.17;;;14.57;;
25111;SDS011;13092;51.996;4.458;2023-12-04T05:14:01;15.30;;;13.70;;
25111;SDS011;13092;51.996;4.458;2023-12-04T05:16:31;15.37;;;13.60;;
25111;SDS011;13092;51.996;4.458;2023-12-04T05:18:59;15.17;;;13.67;;
25111;SDS011;13092;51.996;4.458;2023-12-04T05:21:28;15.63;;;13.90;;
25111;SDS011;13092;51.996;4.458;2023-12-04T05:23:56;16.10;;;14.33;;
25111;SDS011;13092;51.996;4.458;2023-12-04T05:26:24;15.97;;;14.37;;
25111;SDS011;13092;51.996;4.458;2023-12-04T05:28:52;14.83;;;13.43;;
25111;SDS011;13092;51.996;4.458;2023-12-04T05:31:20;16.40;;;14.80;;
25111;SDS011;13092;51.996;4.458;2023-12-04T05:33:50;16.67;;;14.97;;
25111;SDS011;13092;51.996;4.458;2023-12-04T05:36:18;15.10;;;13.60;;
25111;SDS011;13092;51.996;4.458;2023-12-04T05:38:47;16.07;;;14.47;;
25111;SDS011;13092;51.996;4.458;2023-12-04T05:41:16;15.43;;;13.93;;
25111;SDS011;13092;51.996;4.458;2023-12-04T05:43:44;16.57;;;14.90;;
25111;SDS011;13092;51.996;4.458;2023-12-04T05:46:12;15.83;;;14.23;;
25111;SDS011;13092;51.996;4.458;2023-12-04T05:48:40;16.90;;;15.20;;
25111;SDS011;13092;51.996;4.458;2023-12-04T05:51:11;16.23;;;14.73;;
25111;SDS011;13092;51.996;4.458;2023-12-04T05:53:39;17.57;;;15.43;;
25111;SDS011;13092;51.996;4.458;2023-12-04T05:56:09;16.40;;;14.73;;
25111;SDS011;13092;51.996;4.458;2023-12-04T05:58:38;16.90;;;15.20;;
25111;SDS011;13092;51.996;4.458;2023-12-04T06:01:06;17.37;;;15.57;;
25111;SDS011;13092;51.996;4.458;2023-12-04T06:03:34;17.97;;;16.27;;
25111;SDS011;13092;51.996;4.458;2023-12-04T06:06:03;18.30;;;16.60;;
25111;SDS011;13092;51.996;4.458;2023-12-04T06:08:33;17.90;;;16.20;;
25111;SDS011;13092;51.996;4.458;2023-12-04T06:11:01;18.03;;;16.30;;
25111;SDS011;13092;51.996;4.458;2023-12-04T06:13:30;18.40;;;16.57;;
25111;SDS011;13092;51.996;4.458;2023-12-04T06:15:58;18.63;;;16.77;;
25111;SDS011;13092;51.996;4.458;2023-12-04T06:18:26;18.33;;;16.53;;
25111;SDS011;13092;51.996;4.458;2023-12-04T06:20:54;16.90;;;15.20;;
25111;SDS011;13092;51.996;4.458;2023-12-04T06:23:23;17.73;;;15.83;;
25111;SDS011;13092;51.996;4.458;2023-12-04T06:25:53;16.10;;;14.40;;
25111;SDS011;13092;51.996;4.458;2023-12-04T06:28:22;16.40;;;14.73;;
25111;SDS011;13092;51.996;4.458;2023-12-04T06:30:51;17.43;;;15.63;;
25111;SDS011;13092;51.996;4.458;2023-12-04T06:33:20;16.47;;;14.67;;
25111;SDS011;13092;51.996;4.458;2023-12-04T06:35:48;17.03;;;15.33;;
25111;SDS011;13092;51.996;4.458;2023-12-04T06:38:17;17.07;;;15.27;;
25111;SDS011;13092;51.996;4.458;2023-12-04T06:40:53;16.87;;;15.10;;
25111;SDS011;13092;51.996;4.458;2023-12-04T06:43:21;17.13;;;15.33;;
25111;SDS011;13092;51.996;4.458;2023-12-04T06:45:50;16.27;;;14.67;;
25111;SDS011;13092;51.996;4.458;2023-12-04T06:48:23;17.33;;;15.53;;
25111;SDS011;13092;51.996;4.458;2023-12-04T06:50:52;17.17;;;15.57;;
25111;SDS011;13092;51.996;4.458;2023-12-04T06:53:21;18.37;;;16.10;;
25111;SDS011;13092;51.996;4.458;2023-12-04T06:55:52;18.40;;;16.50;;
25111;SDS011;13092;51.996;4.458;2023-12-04T06:58:20;19.00;;;17.20;;
25111;SDS011;13092;51.996;4.458;2023-12-04T07:00:49;18.77;;;17.07;;
25111;SDS011;13092;51.996;4.458;2023-12-04T07:03:19;19.20;;;17.27;;
25111;SDS011;13092;51.996;4.458;2023-12-04T07:05:47;18.77;;;17.00;;
25111;SDS011;13092;51.996;4.458;2023-12-04T07:08:15;18.17;;;16.47;;
25111;SDS011;13092;51.996;4.458;2023-12-04T07:10:43;17.40;;;15.70;;
25111;SDS011;13092;51.996;4.458;2023-12-04T07:13:13;16.73;;;14.97;;
25111;SDS011;13092;51.996;4.458;2023-12-04T07:15:42;16.87;;;15.20;;
25111;SDS011;13092;51.996;4.458;2023-12-04T07:18:10;16.37;;;14.77;;
25111;SDS011;13092;51.996;4.458;2023-12-04T07:20:38;18.83;;;16.70;;
25111;SDS011;13092;51.996;4.458;2023-12-04T07:23:07;16.97;;;15.37;;
25111;SDS011;13092;51.996;4.458;2023-12-04T07:25:35;17.27;;;15.67;;
25111;SDS011;13092;51.996;4.458;2023-12-04T07:28:03;17.07;;;15.27;;
25111;SDS011;13092;51.996;4.458;2023-12-04T07:30:33;16.30;;;14.73;;
25111;SDS011;13092;51.996;4.458;2023-12-04T07:33:04;16.90;;;15.30;;
25111;SDS011;13092;51.996;4.458;2023-12-04T07:35:35;16.80;;;15.10;;
25111;SDS011;13092;51.996;4.458;2023-12-04T07:38:03;16.63;;;14.83;;
25111;SDS011;13092;51.996;4.458;2023-12-04T07:40:32;15.90;;;14.23;;
25111;SDS011;13092;51.996;4.458;2023-12-04T07:43:00;16.33;;;14.73;;
25111;SDS011;13092;51.996;4.458;2023-12-04T07:45:28;15.37;;;13.77;;
25111;SDS011;13092;51.996;4.458;2023-12-04T07:47:58;15.43;;;13.83;;
25111;SDS011;13092;51.996;4.458;2023-12-04T07:50:27;14.80;;;13.30;;
25111;SDS011;13092;51.996;4.458;2023-12-04T07:52:55;14.50;;;13.07;;
25111;SDS011;13092;51.996;4.458;2023-12-04T07:55:23;16.77;;;13.10;;
25111;SDS011;13092;51.996;4.458;2023-12-04T07:57:51;14.10;;;12.80;;
25111;SDS011;13092;51.996;4.458;2023-12-04T08:00:20;14.30;;;12.90;;
25111;SDS011;13092;51.996;4.458;2023-12-04T08:02:49;15.00;;;12.50;;
25111;SDS011;13092;51.996;4.458;2023-12-04T08:05:19;12.83;;;11.33;;
25111;SDS011;13092;51.996;4.458;2023-12-04T08:07:47;14.37;;;12.87;;
25111;SDS011;13092;51.996;4.458;2023-12-04T08:10:15;13.50;;;12.07;;
25111;SDS011;13092;51.996;4.458;2023-12-04T08:12:44;12.50;;;11.20;;
25111;SDS011;13092;51.996;4.458;2023-12-04T08:15:13;13.90;;;12.40;;
25111;SDS011;13092;51.996;4.458;2023-12-04T08:17:41;12.87;;;11.57;;
25111;SDS011;13092;51.996;4.458;2023-12-04T08:20:10;12.63;;;11.10;;
25111;SDS011;13092;51.996;4.458;2023-12-04T08:22:51;13.03;;;11.37;;
25111;SDS011;13092;51.996;4.458;2023-12-04T08:25:20;13.40;;;11.83;;
25111;SDS011;13092;51.996;4.458;2023-12-04T08:27:48;13.07;;;11.40;;
25111;SDS011;13092;51.996;4.458;2023-12-04T08:30:17;13.47;;;12.03;;
25111;SDS011;13092;51.996;4.458;2023-12-04T08:32:45;14.10;;;12.47;;
25111;SDS011;13092;51.996;4.458;2023-12-04T08:35:14;14.10;;;12.60;;
25111;SDS011;13092;51.996;4.458;2023-12-04T08:37:42;13.00;;;11.60;;
25111;SDS011;13092;51.996;4.458;2023-12-04T08:40:12;14.20;;;12.70;;
25111;SDS011;13092;51.996;4.458;2023-12-04T08:42:40;14.33;;;12.10;;
25111;SDS011;13092;51.996;4.458;2023-12-04T08:45:09;14.27;;;12.87;;
25111;SDS011;13092;51.996;4.458;2023-12-04T08:47:37;13.53;;;11.73;;
25111;SDS011;13092;51.996;4.458;2023-12-04T08:50:06;15.30;;;12.27;;
25111;SDS011;13092;51.996;4.458;2023-12-04T08:52:35;13.10;;;11.70;;
25111;SDS011;13092;51.996;4.458;2023-12-04T08:55:05;12.50;;;11.20;;
25111;SDS011;13092;51.996;4.458;2023-12-04T08:57:36;13.30;;;11.93;;
25111;SDS011;13092;51.996;4.458;2023-12-04T09:00:06;12.47;;;11.17;;
25111;SDS011;13092;51.996;4.458;2023-12-04T09:02:38;16.50;;;11.93;;
25111;SDS011;13092;51.996;4.458;2023-12-04T09:05:15;13.47;;;11.80;;
25111;SDS011;13092;51.996;4.458;2023-12-04T09:07:43;12.67;;;11.30;;
25111;SDS011;13092;51.996;4.458;2023-12-04T09:10:14;13.13;;;11.53;;
25111;SDS011;13092;51.996;4.458;2023-12-04T09:13:04;14.70;;;12.63;;
25111;SDS011;13092;51.996;4.458;2023-12-04T09:15:32;12.27;;;10.67;;
25111;SDS011;13092;51.996;4.458;2023-12-04T09:18:00;15.90;;;11.50;;
25111;SDS011;13092;51.996;4.458;2023-12-04T09:20:28;12.97;;;11.20;;
25111;SDS011;13092;51.996;4.458;2023-12-04T09:22:57;12.60;;;11.30;;
25111;SDS011;13092;51.996;4.458;2023-12-04T09:25:33;13.17;;;11.70;;
25111;SDS011;13092;51.996;4.458;2023-12-04T09:28:02;12.93;;;11.63;;
25111;SDS011;13092;51.996;4.458;2023-12-04T09:30:31;13.03;;;11.73;;
25111;SDS011;13092;51.996;4.458;2023-12-04T09:33:00;12.90;;;11.40;;
25111;SDS011;13092;51.996;4.458;2023-12-04T09:35:29;13.77;;;11.77;;
25111;SDS011;13092;51.996;4.458;2023-12-04T09:37:57;12.97;;;11.60;;
25111;SDS011;13092;51.996;4.458;2023-12-04T09:40:26;12.70;;;11.13;;
25111;SDS011;13092;51.996;4.458;2023-12-04T09:42:54;12.93;;;10.97;;
25111;SDS011;13092;51.996;4.458;2023-12-04T09:45:24;12.97;;;11.57;;
25111;SDS011;13092;51.996;4.458;2023-12-04T09:47:53;11.70;;;10.43;;
25111;SDS011;13092;51.996;4.458;2023-12-04T09:50:22;14.63;;;11.60;;
25111;SDS011;13092;51.996;4.458;2023-12-04T09:52:51;13.17;;;11.77;;
25111;SDS011;13092;51.996;4.458;2023-12-04T09:55:19;12.63;;;11.33;;
25111;SDS011;13092;51.996;4.458;2023-12-04T09:57:48;12.30;;;10.80;;
25111;SDS011;13092;51.996;4.458;2023-12-04T10:00:17;12.70;;;11.33;;
25111;SDS011;13092;51.996;4.458;2023-12-04T10:02:49;12.53;;;10.73;;
25111;SDS011;13092;51.996;4.458;2023-12-04T10:05:18;13.23;;;11.60;;
25111;SDS011;13092;51.996;4.458;2023-12-04T10:07:47;12.73;;;11.20;;
25111;SDS011;13092;51.996;4.458;2023-12-04T10:10:15;13.67;;;11.50;;
25111;SDS011;13092;51.996;4.458;2023-12-04T10:12:44;12.97;;;11.57;;
25111;SDS011;13092;51.996;4.458;2023-12-04T10:15:13;12.87;;;11.57;;
25111;SDS011;13092;51.996;4.458;2023-12-04T10:17:42;13.00;;;11.67;;
25111;SDS011;13092;51.996;4.458;2023-12-04T10:20:14;12.90;;;11.60;;
25111;SDS011;13092;51.996;4.458;2023-12-04T10:22:52;15.00;;;12.00;;
25111;SDS011;13092;51.996;4.458;2023-12-04T10:25:21;13.53;;;12.10;;
25111;SDS011;13092;51.996;4.458;2023-12-04T10:27:51;13.53;;;11.73;;
25111;SDS011;13092;51.996;4.458;2023-12-04T10:30:23;12.93;;;11.47;;
25111;SDS011;13092;51.996;4.458;2023-12-04T10:32:56;13.47;;;12.07;;
25111;SDS011;13092;51.996;4.458;2023-12-04T10:35:30;12.67;;;10.50;;
25111;SDS011;13092;51.996;4.458;2023-12-04T10:38:02;13.57;;;10.87;;
25111;SDS011;13092;51.996;4.458;2023-12-04T10:40:31;11.33;;;9.97;;
25111;SDS011;13092;51.996;4.458;2023-12-04T10:43:10;11.73;;;10.10;;
25111;SDS011;13092;51.996;4.458;2023-12-04T10:45:40;16.30;;;9.60;;
25111;SDS011;13092;51.996;4.458;2023-12-04T10:48:10;16.27;;;9.73;;
25111;SDS011;13092;51.996;4.458;2023-12-04T10:50:40;11.10;;;9.70;;
25111;SDS011;13092;51.996;4.458;2023-12-04T10:53:10;13.80;;;8.77;;
25111;SDS011;13092;51.996;4.458;2023-12-04T10:55:39;10.90;;;8.60;;
25111;SDS011;13092;51.996;4.458;2023-12-04T10:58:09;11.23;;;8.00;;
25111;SDS011;13092;51.996;4.458;2023-12-04T11:00:40;12.33;;;8.43;;
25111;SDS011;13092;51.996;4.458;2023-12-04T11:03:12;14.87;;;8.20;;
25111;SDS011;13092;51.996;4.458;2023-12-04T11:05:47;10.43;;;8.13;;
25111;SDS011;13092;51.996;4.458;2023-12-04T11:08:22;11.70;;;7.23;;
25111;SDS011;13092;51.996;4.458;2023-12-04T11:10:54;9.23;;;7.53;;
25111;SDS011;13092;51.996;4.458;2023-12-04T11:13:27;10.70;;;7.57;;
25111;SDS011;13092;51.996;4.458;2023-12-04T11:15:59;10.37;;;7.47;;
25111;SDS011;13092;51.996;4.458;2023-12-04T11:18:31;10.90;;;7.77;;
25111;SDS011;13092;51.996;4.458;2023-12-04T11:21:05;10.30;;;8.03;;
25111;SDS011;13092;51.996;4.458;2023-12-04T11:23:35;10.93;;;8.03;;
25111;SDS011;13092;51.996;4.458;2023-12-04T11:26:06;11.33;;;8.70;;
25111;SDS011;13092;51.996;4.458;2023-12-04T11:28:36;11.53;;;8.80;;
25111;SDS011;13092;51.996;4.458;2023-12-04T11:31:06;12.90;;;9.00;;
25111;SDS011;13092;51.996;4.458;2023-12-04T11:33:35;11.00;;;9.67;;
25111;SDS011;13092;51.996;4.458;2023-12-04T11:36:09;12.73;;;9.77;;
25111;SDS011;13092;51.996;4.458;2023-12-04T11:38:43;10.67;;;9.57;;
25111;SDS011;13092;51.996;4.458;2023-12-04T11:41:16;12.17;;;10.40;;
25111;SDS011;13092;51.996;4.458;2023-12-04T11:43:50;12.57;;;11.17;;
25111;SDS011;13092;51.996;4.458;2023-12-04T11:46:19;13.07;;;11.77;;
25111;SDS011;13092;51.996;4.458;2023-12-04T11:48:49;14.43;;;12.23;;
25111;SDS011;13092;51.996;4.458;2023-12-04T11:54:18;15.53;;;14.07;;
25111;SDS011;13092;51.996;4.458;2023-12-04T11:57:00;15.50;;;14.17;;
25111;SDS011;13092;51.996;4.458;2023-12-04T11:59:46;17.60;;;16.00;;
25111;SDS011;13092;51.996;4.458;2023-12-04T12:02:15;17.90;;;16.27;;
25111;SDS011;13092;51.996;4.458;2023-12-04T12:04:44;18.27;;;16.50;;
25111;SDS011;13092;51.996;4.458;2023-12-04T12:07:14;18.43;;;16.83;;
25111;SDS011;13092;51.996;4.458;2023-12-04T12:09:43;20.20;;;18.57;;
25111;SDS011;13092;51.996;4.458;2023-12-04T12:12:12;18.60;;;17.10;;
25111;SDS011;13092;51.996;4.458;2023-12-04T12:14:41;18.83;;;17.23;;
25111;SDS011;13092;51.996;4.458;2023-12-04T12:17:09;20.03;;;18.43;;
25111;SDS011;13092;51.996;4.458;2023-12-04T12:19:37;19.60;;;18.00;;
25111;SDS011;13092;51.996;4.458;2023-12-04T12:22:05;18.90;;;17.40;;
25111;SDS011;13092;51.996;4.458;2023-12-04T12:24:36;20.13;;;18.57;;
25111;SDS011;13092;51.996;4.458;2023-12-04T12:27:04;21.03;;;19.27;;
25111;SDS011;13092;51.996;4.458;2023-12-04T12:29:34;21.73;;;19.93;;
25111;SDS011;13092;51.996;4.458;2023-12-04T12:32:02;20.47;;;18.97;;
25111;SDS011;13092;51.996;4.458;2023-12-04T12:34:31;21.90;;;20.20;;
25111;SDS011;13092;51.996;4.458;2023-12-04T12:37:02;22.43;;;20.73;;
25111;SDS011;13092;51.996;4.458;2023-12-04T12:39:32;22.93;;;21.13;;
25111;SDS011;13092;51.996;4.458;2023-12-04T12:42:03;22.60;;;20.83;;
25111;SDS011;13092;51.996;4.458;2023-12-04T12:44:36;22.23;;;20.53;;
25111;SDS011;13092;51.996;4.458;2023-12-04T12:47:07;21.63;;;19.83;;
25111;SDS011;13092;51.996;4.458;2023-12-04T12:49:35;22.03;;;20.23;;
25111;SDS011;13092;51.996;4.458;2023-12-04T12:52:07;21.47;;;19.73;;
25111;SDS011;13092;51.996;4.458;2023-12-04T12:54:37;21.30;;;19.60;;
25111;SDS011;13092;51.996;4.458;2023-12-04T12:57:07;21.43;;;19.63;;
25111;SDS011;13092;51.996;4.458;2023-12-04T12:59:37;21.50;;;19.80;;
25111;SDS011;13092;51.996;4.458;2023-12-04T13:02:06;22.03;;;20.40;;
25111;SDS011;13092;51.996;4.458;2023-12-04T13:04:36;21.70;;;20.00;;
25111;SDS011;13092;51.996;4.458;2023-12-04T13:07:05;22.10;;;20.50;;
25111;SDS011;13092;51.996;4.458;2023-12-04T13:09:35;22.20;;;20.43;;
25111;SDS011;13092;51.996;4.458;2023-12-04T13:12:03;24.43;;;22.53;;
25111;SDS011;13092;51.996;4.458;2023-12-04T13:14:34;24.40;;;22.60;;
25111;SDS011;13092;51.996;4.458;2023-12-04T13:17:03;26.17;;;24.17;;
25111;SDS011;13092;51.996;4.458;2023-12-04T13:19:33;27.27;;;25.27;;
25111;SDS011;13092;51.996;4.458;2023-12-04T13:22:03;26.63;;;24.73;;
25111;SDS011;13092;51.996;4.458;2023-12-04T13:24:31;26.57;;;24.67;;
25111;SDS011;13092;51.996;4.458;2023-12-04T13:26:59;28.27;;;26.20;;
25111;SDS011;13092;51.996;4.458;2023-12-04T13:29:28;28.73;;;26.60;;
25111;SDS011;13092;51.996;4.458;2023-12-04T13:31:58;28.53;;;26.47;;
25111;SDS011;13092;51.996;4.458;2023-12-04T13:34:27;29.03;;;26.83;;
25111;SDS011;13092;51.996;4.458;2023-12-04T13:36:57;30.47;;;27.97;;
25111;SDS011;13092;51.996;4.458;2023-12-04T13:39:26;29.43;;;27.33;;
25111;SDS011;13092;51.996;4.458;2023-12-04T13:42:13;29.27;;;26.97;;
25111;SDS011;13092;51.996;4.458;2023-12-04T13:44:59;29.60;;;27.40;;
25111;SDS011;13092;51.996;4.458;2023-12-04T13:47:29;30.93;;;28.67;;
25111;SDS011;13092;51.996;4.458;2023-12-04T13:49:57;31.63;;;29.33;;
25111;SDS011;13092;51.996;4.458;2023-12-04T13:52:26;32.87;;;30.37;;
25111;SDS011;13092;51.996;4.458;2023-12-04T13:54:59;31.93;;;29.30;;
25111;SDS011;13092;51.996;4.458;2023-12-04T13:57:28;30.67;;;28.33;;
25111;SDS011;13092;51.996;4.458;2023-12-04T13:59:59;32.27;;;29.67;;
25111;SDS011;13092;51.996;4.458;2023-12-04T14:02:27;32.23;;;29.63;;
25111;SDS011;13092;51.996;4.458;2023-12-04T14:04:57;31.70;;;29.30;;
25111;SDS011;13092;51.996;4.458;2023-12-04T14:07:26;32.83;;;30.23;;
25111;SDS011;13092;51.996;4.458;2023-12-04T14:09:54;32.83;;;30.30;;
25111;SDS011;13092;51.996;4.458;2023-12-04T14:12:23;33.57;;;30.77;;
25111;SDS011;13092;51.996;4.458;2023-12-04T14:14:51;35.10;;;32.40;;
25111;SDS011;13092;51.996;4.458;2023-12-04T14:17:23;35.07;;;32.23;;
25111;SDS011;13092;51.996;4.458;2023-12-04T14:19:53;36.33;;;33.43;;
25111;SDS011;13092;51.996;4.458;2023-12-04T14:22:21;36.27;;;33.47;;
25111;SDS011;13092;51.996;4.458;2023-12-04T14:24:50;36.77;;;33.60;;
25111;SDS011;13092;51.996;4.458;2023-12-04T14:27:18;38.10;;;34.97;;
25111;SDS011;13092;51.996;4.458;2023-12-04T14:29:46;38.07;;;34.93;;
25111;SDS011;13092;51.996;4.458;2023-12-04T14:32:14;37.97;;;35.03;;
25111;SDS011;13092;51.996;4.458;2023-12-04T14:34:44;38.00;;;34.80;;
25111;SDS011;13092;51.996;4.458;2023-12-04T14:37:14;37.23;;;34.33;;
25111;SDS011;13092;51.996;4.458;2023-12-04T14:39:42;38.73;;;35.63;;